createdAt,value
2022-12-24T00:01:56.853Z,17.23
2022-12-24T00:04:26.043Z,21.90
2022-12-24T00:06:56.958Z,20.38
2022-12-24T00:09:26.278Z,18.92
2022-12-24T00:11:55.725Z,18.30
2022-12-24T00:14:25.211Z,20.10
2022-12-24T00:16:54.749Z,20.17
2022-12-24T00:19:24.297Z,25.73
2022-12-24T00:21:55.183Z,30.58
2022-12-24T00:24:24.506Z,32.40
2022-12-24T00:26:53.947Z,40.33
2022-12-24T00:29:23.180Z,34.67
2022-12-24T00:31:52.657Z,33.75
2022-12-24T00:34:23.952Z,45.33
2022-12-24T00:36:53.861Z,31.38
2022-12-24T00:39:24.530Z,29.00
2022-12-24T00:41:54.028Z,18.42
2022-12-24T00:44:23.318Z,19.15
2022-12-24T00:46:52.961Z,20.70
2022-12-24T00:49:22.411Z,18.27
2022-12-24T00:51:51.927Z,24.33
2022-12-24T00:54:21.205Z,20.85
2022-12-24T00:56:52.017Z,29.87
2022-12-24T00:59:21.257Z,24.02
2022-12-24T01:01:50.791Z,24.03
2022-12-24T01:04:37.564Z,21.70
2022-12-24T01:07:07.048Z,22.35
2022-12-24T01:09:36.463Z,21.98
2022-12-24T01:12:07.587Z,22.65
2022-12-24T01:14:37.979Z,23.55
2022-12-24T01:17:07.775Z,22.50
2022-12-24T01:19:36.963Z,19.38
2022-12-24T01:22:06.476Z,18.20
2022-12-24T01:24:35.809Z,15.38
2022-12-24T01:27:06.878Z,13.73
2022-12-24T01:29:36.106Z,14.63
2022-12-24T01:32:06.120Z,14.43
2022-12-24T01:34:36.402Z,17.73
2022-12-24T01:37:05.922Z,15.88
2022-12-24T01:39:35.314Z,15.15
2022-12-24T01:42:30.241Z,16.02
2022-12-24T01:45:38.105Z,16.13
2022-12-24T01:48:15.202Z,27.48
2022-12-24T01:50:44.937Z,20.63
2022-12-24T01:53:17.054Z,21.40
2022-12-24T01:55:48.218Z,20.63
2022-12-24T01:58:21.633Z,16.08
2022-12-24T02:00:50.837Z,14.82
2022-12-24T02:03:20.859Z,14.60
2022-12-24T02:05:51.864Z,15.30
2022-12-24T02:08:22.213Z,15.13
2022-12-24T02:10:51.874Z,14.35
2022-12-24T02:13:23.277Z,15.30
2022-12-24T02:16:03.552Z,15.90
2022-12-24T02:18:41.101Z,14.57
2022-12-24T02:21:37.497Z,13.55
2022-12-24T02:24:54.741Z,13.30
2022-12-24T02:27:35.441Z,15.25
2022-12-24T02:30:13.717Z,13.63
2022-12-24T02:33:15.933Z,12.63
2022-12-24T02:35:52.295Z,13.20
2022-12-24T02:38:28.857Z,15.00
2022-12-24T02:41:03.709Z,13.88
2022-12-24T02:43:37.085Z,12.57
2022-12-24T02:46:11.341Z,11.38
2022-12-24T02:48:43.635Z,12.68
2022-12-24T02:51:14.159Z,13.13
2022-12-24T02:53:43.958Z,11.52
2022-12-24T02:56:43.737Z,13.18
2022-12-24T02:59:50.218Z,12.70
2022-12-24T03:02:31.330Z,12.52
2022-12-24T03:05:12.009Z,15.27
2022-12-24T03:07:48.900Z,10.23
2022-12-24T03:10:25.203Z,9.13
2022-12-24T03:13:01.525Z,13.98
2022-12-24T03:15:33.060Z,11.07
2022-12-24T03:18:07.743Z,11.82
2022-12-24T03:20:40.160Z,8.38
2022-12-24T03:23:09.853Z,8.32
2022-12-24T03:25:43.499Z,10.30
2022-12-24T03:28:16.252Z,7.97
2022-12-24T03:30:48.433Z,10.98
2022-12-24T03:33:19.952Z,9.18
2022-12-24T03:35:49.341Z,10.55
2022-12-24T03:38:18.812Z,9.00
2022-12-24T03:40:48.101Z,10.25
2022-12-24T03:43:17.700Z,10.48
2022-12-24T03:45:46.886Z,8.65
2022-12-24T03:48:16.450Z,7.82
2022-12-24T03:50:47.139Z,9.75
2022-12-24T03:53:16.632Z,7.32
2022-12-24T03:55:45.820Z,9.25
2022-12-24T03:58:15.427Z,14.48
2022-12-24T04:00:44.699Z,9.35
2022-12-24T04:03:14.409Z,9.63
2022-12-24T04:05:45.281Z,8.85
2022-12-24T04:08:14.765Z,7.50
2022-12-24T04:10:43.879Z,9.32
2022-12-24T04:13:13.443Z,11.55
2022-12-24T04:15:42.549Z,8.98
2022-12-24T04:18:12.003Z,15.60
2022-12-24T04:20:41.250Z,17.23
2022-12-24T04:23:12.074Z,18.07
2022-12-24T04:25:41.304Z,15.00
2022-12-24T04:28:10.800Z,9.80
2022-12-24T04:30:40.504Z,7.93
2022-12-24T04:33:10.768Z,8.00
2022-12-24T04:35:42.503Z,8.38
2022-12-24T04:38:13.427Z,6.88
2022-12-24T04:40:42.629Z,7.10
2022-12-24T04:43:12.078Z,7.63
2022-12-24T04:45:41.338Z,6.57
2022-12-24T04:48:10.844Z,7.13
2022-12-24T04:50:40.715Z,8.65
2022-12-24T04:53:10.320Z,8.38
2022-12-24T04:55:44.800Z,7.55
2022-12-24T04:58:14.742Z,6.35
2022-12-24T05:00:44.153Z,4.72
2022-12-24T05:03:13.675Z,5.75
2022-12-24T05:05:42.960Z,5.33
2022-12-24T05:08:12.413Z,6.07
2022-12-24T05:10:43.054Z,6.72
2022-12-24T05:13:12.557Z,5.78
2022-12-24T05:15:41.677Z,8.52
2022-12-24T05:18:11.192Z,5.60
2022-12-24T05:20:41.918Z,5.28
2022-12-24T05:23:34.272Z,6.25
2022-12-24T05:26:24.156Z,5.95
2022-12-24T05:28:55.800Z,8.13
2022-12-24T05:31:26.523Z,5.20
2022-12-24T05:33:56.989Z,6.20
2022-12-24T05:36:26.336Z,6.65
2022-12-24T05:38:55.848Z,6.43
2022-12-24T05:41:27.054Z,6.80
2022-12-24T05:43:56.815Z,7.22
2022-12-24T05:46:26.937Z,6.85
2022-12-24T05:48:56.456Z,8.55
2022-12-24T05:51:25.946Z,7.82
2022-12-24T05:53:55.490Z,6.93
2022-12-24T05:56:26.961Z,8.83
2022-12-24T05:58:58.148Z,7.45
2022-12-24T06:01:27.789Z,8.52
2022-12-24T06:03:58.785Z,11.02
2022-12-24T06:06:29.705Z,12.07
2022-12-24T06:08:59.290Z,8.23
2022-12-24T06:11:30.316Z,7.80
2022-12-24T06:13:59.975Z,8.63
2022-12-24T06:16:29.891Z,7.18
2022-12-24T06:18:59.501Z,6.88
2022-12-24T06:21:28.707Z,8.27
2022-12-24T06:23:58.345Z,7.63
2022-12-24T06:26:29.002Z,7.72
2022-12-24T06:28:58.546Z,6.25
2022-12-24T06:31:27.824Z,6.07
2022-12-24T06:33:57.517Z,6.78
2022-12-24T06:36:27.793Z,7.78
2022-12-24T06:38:57.535Z,5.65
2022-12-24T06:41:28.138Z,9.67
2022-12-24T06:43:57.744Z,9.35
2022-12-24T06:46:26.987Z,9.40
2022-12-24T06:48:56.507Z,11.50
2022-12-24T06:51:25.735Z,9.75
2022-12-24T06:53:55.560Z,9.25
2022-12-24T06:56:24.848Z,10.10
2022-12-24T06:59:00.129Z,8.55
2022-12-24T07:01:32.623Z,12.05
2022-12-24T07:04:02.413Z,8.18
2022-12-24T07:06:32.321Z,10.48
2022-12-24T07:09:01.836Z,12.23
2022-12-24T07:11:31.135Z,18.25
2022-12-24T07:14:02.008Z,21.33
2022-12-24T07:16:31.353Z,21.63
2022-12-24T07:19:00.904Z,41.83
2022-12-24T07:21:30.194Z,27.33
2022-12-24T07:23:59.671Z,28.08
2022-12-24T07:26:28.850Z,13.32
2022-12-24T07:28:58.364Z,10.75
2022-12-24T07:31:29.096Z,14.32
2022-12-24T07:33:58.735Z,18.42
2022-12-24T07:36:29.080Z,23.45
2022-12-24T07:38:58.775Z,23.15
2022-12-24T07:41:27.902Z,20.02
2022-12-24T07:43:57.653Z,26.17
2022-12-24T07:46:28.425Z,21.25
2022-12-24T07:48:58.092Z,15.48
2022-12-24T07:51:27.226Z,13.23
2022-12-24T07:53:56.835Z,14.25
2022-12-24T07:56:25.988Z,51.42
2022-12-24T07:58:55.547Z,27.50
2022-12-24T08:01:24.890Z,15.45
2022-12-24T08:03:55.928Z,14.38
2022-12-24T08:06:25.610Z,18.20
2022-12-24T08:08:55.064Z,23.00
2022-12-24T08:11:24.278Z,46.72
2022-12-24T08:13:53.778Z,47.23
2022-12-24T08:16:23.040Z,35.30
2022-12-24T08:18:52.541Z,36.42
2022-12-24T08:21:23.169Z,30.42
2022-12-24T08:23:52.726Z,33.13
2022-12-24T08:26:21.889Z,26.35
2022-12-24T08:28:51.423Z,26.83
2022-12-24T08:31:20.572Z,35.60
2022-12-24T08:33:50.115Z,47.58
2022-12-24T08:36:19.422Z,51.17
2022-12-24T08:38:50.283Z,43.25
2022-12-24T08:41:19.544Z,35.75
2022-12-24T08:43:48.965Z,29.85
2022-12-24T08:46:18.234Z,41.47
2022-12-24T08:48:47.742Z,27.20
2022-12-24T08:51:17.206Z,37.38
2022-12-24T08:53:47.433Z,42.05
2022-12-24T08:56:18.988Z,27.58
2022-12-24T08:58:49.915Z,19.10
2022-12-24T09:01:21.263Z,15.75
2022-12-24T09:03:51.192Z,18.38
2022-12-24T09:06:20.650Z,13.70
2022-12-24T09:08:50.339Z,14.85
2022-12-24T09:11:21.474Z,9.43
2022-12-24T09:13:51.149Z,11.73
2022-12-24T09:16:20.518Z,10.03
2022-12-24T09:18:50.024Z,13.90
2022-12-24T09:21:19.969Z,9.75
2022-12-24T09:23:50.269Z,12.23
2022-12-24T09:26:22.423Z,14.50
2022-12-24T09:28:52.157Z,11.88
2022-12-24T09:31:21.992Z,12.95
2022-12-24T09:33:52.570Z,14.38
2022-12-24T09:36:21.856Z,23.38
2022-12-24T09:38:51.469Z,20.58
2022-12-24T09:41:36.616Z,24.10
2022-12-24T09:44:20.561Z,27.80
2022-12-24T09:46:53.005Z,19.95
2022-12-24T09:49:26.953Z,15.20
2022-12-24T09:52:02.136Z,10.43
2022-12-24T09:54:35.182Z,9.40
2022-12-24T09:57:14.231Z,9.77
2022-12-24T09:59:46.411Z,21.80
2022-12-24T10:02:17.309Z,19.92
2022-12-24T10:04:49.332Z,31.52
2022-12-24T10:07:33.418Z,8.32
2022-12-24T10:10:14.639Z,8.38
2022-12-24T10:12:55.349Z,5.72
2022-12-24T10:15:31.180Z,6.93
2022-12-24T10:18:21.411Z,12.18
2022-12-24T10:20:59.498Z,10.02
2022-12-24T10:23:35.974Z,7.22
2022-12-24T10:26:13.816Z,4.70
2022-12-24T10:28:49.579Z,6.05
2022-12-24T10:31:22.936Z,4.68
2022-12-24T10:33:58.203Z,5.32
2022-12-24T10:36:31.330Z,3.40
2022-12-24T10:39:00.914Z,2.40
2022-12-24T10:41:31.834Z,1.40
2022-12-24T10:44:03.895Z,1.67
2022-12-24T10:46:37.622Z,2.13
2022-12-24T10:49:08.828Z,2.22
2022-12-24T10:51:46.762Z,2.00
2022-12-24T10:54:24.425Z,1.10
2022-12-24T10:56:59.573Z,2.80
2022-12-24T10:59:32.712Z,1.75
2022-12-24T11:02:03.111Z,1.92
2022-12-24T11:07:05.632Z,2.30
2022-12-24T11:09:37.399Z,2.20
2022-12-24T11:12:17.955Z,1.95
2022-12-24T11:14:48.715Z,2.80
2022-12-24T11:17:22.495Z,2.13
2022-12-24T11:19:52.507Z,1.80
2022-12-24T11:22:26.534Z,2.22
2022-12-24T11:25:03.028Z,2.65
2022-12-24T11:27:42.179Z,2.20
2022-12-24T11:30:29.462Z,3.35
2022-12-24T11:33:20.868Z,2.55
2022-12-24T11:35:54.422Z,2.33
2022-12-24T11:38:27.254Z,2.78
2022-12-24T11:41:03.380Z,1.98
2022-12-24T11:43:46.025Z,2.95
2022-12-24T11:46:23.217Z,3.20
2022-12-24T11:49:21.936Z,2.83
2022-12-24T11:52:25.916Z,3.58
2022-12-24T11:55:22.560Z,2.67
2022-12-24T11:58:01.141Z,4.40
2022-12-24T12:00:30.880Z,1.92
2022-12-24T12:03:05.572Z,3.20
2022-12-24T12:05:36.699Z,2.90
2022-12-24T12:08:18.624Z,2.75
2022-12-24T12:10:51.340Z,3.03
2022-12-24T12:13:25.390Z,4.55
2022-12-24T12:16:08.987Z,2.47
2022-12-24T12:18:42.624Z,2.85
2022-12-24T12:21:18.188Z,3.58
2022-12-24T12:23:52.202Z,3.55
2022-12-24T12:26:25.694Z,2.85
2022-12-24T12:28:59.646Z,3.55
2022-12-24T12:31:35.551Z,6.82
2022-12-24T12:34:13.571Z,4.95
2022-12-24T12:36:47.878Z,5.03
2022-12-24T12:39:17.885Z,4.38
2022-12-24T12:41:56.120Z,3.83
2022-12-24T12:44:50.099Z,3.47
2022-12-24T12:47:43.634Z,4.32
2022-12-24T12:50:23.389Z,4.20
2022-12-24T12:53:25.331Z,4.63
2022-12-24T12:56:05.953Z,4.03
2022-12-24T12:58:40.621Z,5.90
2022-12-24T13:01:14.783Z,4.82
2022-12-24T13:04:26.290Z,5.20
2022-12-24T13:07:37.645Z,5.30
2022-12-24T13:10:36.320Z,5.70
2022-12-24T13:13:36.388Z,4.35
2022-12-24T13:19:10.301Z,6.63
2022-12-24T13:21:46.139Z,7.70
2022-12-24T13:24:20.667Z,11.07
2022-12-24T13:27:06.249Z,32.92
2022-12-24T13:29:53.566Z,37.47
2022-12-24T13:32:51.635Z,26.40
2022-12-24T13:35:58.546Z,24.88
2022-12-24T13:38:43.507Z,25.00
2022-12-24T13:41:58.475Z,29.88
2022-12-24T13:44:33.232Z,27.40
2022-12-24T13:47:25.290Z,26.48
2022-12-24T13:50:14.132Z,23.80
2022-12-24T13:52:53.648Z,19.00
2022-12-24T13:55:23.786Z,15.68
2022-12-24T13:58:00.020Z,29.02
2022-12-24T14:00:42.622Z,37.50
2022-12-24T14:03:32.201Z,39.10
2022-12-24T14:06:04.200Z,42.85
2022-12-24T14:08:41.274Z,57.10
2022-12-24T14:11:14.093Z,80.93
2022-12-24T14:14:13.032Z,97.25
2022-12-24T14:16:54.000Z,74.45
2022-12-24T14:19:27.485Z,69.30
2022-12-24T14:22:05.169Z,35.85
2022-12-24T14:24:38.622Z,40.35
2022-12-24T14:27:16.081Z,73.78
2022-12-24T14:29:51.702Z,106.00
2022-12-24T14:32:22.629Z,90.40
2022-12-24T14:35:07.806Z,82.68
2022-12-24T14:37:38.116Z,78.93
2022-12-24T14:40:10.289Z,100.40
2022-12-24T14:42:49.464Z,73.72
2022-12-24T14:45:29.439Z,89.15
2022-12-24T14:50:55.217Z,63.47
2022-12-24T14:53:32.669Z,68.10
2022-12-24T14:56:14.500Z,43.75
2022-12-24T14:58:45.443Z,47.15
2022-12-24T15:01:24.315Z,60.30
2022-12-24T15:04:06.622Z,61.28
2022-12-24T15:06:38.774Z,64.40
2022-12-24T15:09:15.711Z,80.63
2022-12-24T15:11:46.884Z,59.95
2022-12-24T15:14:17.413Z,89.07
2022-12-24T15:19:28.890Z,106.72
2022-12-24T15:21:59.158Z,60.17
2022-12-24T15:24:32.302Z,54.53
2022-12-24T15:27:03.063Z,51.03
2022-12-24T15:29:34.310Z,51.67
2022-12-24T15:32:05.252Z,56.53
2022-12-24T15:34:40.597Z,51.15
2022-12-24T15:37:17.711Z,74.05
2022-12-24T15:39:54.394Z,65.70
2022-12-24T15:42:24.606Z,54.00
2022-12-24T15:45:02.796Z,50.88
2022-12-24T15:47:38.103Z,32.00
2022-12-24T15:50:18.630Z,44.55
2022-12-24T15:52:48.524Z,74.22
2022-12-24T15:55:41.076Z,63.25
2022-12-24T15:58:18.681Z,49.05
2022-12-24T16:01:02.968Z,58.95
2022-12-24T16:03:32.380Z,61.33
2022-12-24T16:06:03.858Z,65.53
2022-12-24T16:08:34.971Z,113.28
2022-12-24T16:11:18.909Z,90.10
2022-12-24T16:14:05.442Z,73.63
2022-12-24T16:16:39.942Z,79.13
2022-12-24T16:19:17.576Z,62.70
2022-12-24T16:21:52.933Z,75.43
2022-12-24T16:24:25.267Z,57.72
2022-12-24T16:26:55.404Z,53.75
2022-12-24T16:29:24.843Z,61.13
2022-12-24T16:31:56.037Z,79.78
2022-12-24T16:34:27.303Z,64.65
2022-12-24T16:36:58.500Z,48.83
2022-12-24T16:39:31.659Z,45.17
2022-12-24T16:42:20.281Z,71.18
2022-12-24T16:44:49.791Z,43.15
2022-12-24T16:47:22.151Z,52.78
2022-12-24T16:49:51.687Z,74.10
2022-12-24T16:52:23.919Z,66.53
2022-12-24T16:54:53.419Z,53.78
2022-12-24T16:57:24.335Z,44.80
2022-12-24T16:59:54.451Z,50.88
2022-12-24T17:02:25.472Z,50.33
2022-12-24T17:04:54.704Z,60.95
2022-12-24T17:07:25.306Z,69.32
2022-12-24T17:12:23.313Z,45.58
2022-12-24T17:14:52.226Z,38.78
2022-12-24T17:17:24.826Z,35.90
2022-12-24T17:19:53.974Z,56.88
2022-12-24T17:22:24.575Z,47.92
2022-12-24T17:27:23.738Z,49.97
2022-12-24T17:29:52.902Z,30.88
2022-12-24T17:32:22.230Z,48.00
2022-12-24T17:34:51.238Z,42.92
2022-12-24T17:37:20.465Z,50.35
2022-12-24T17:39:50.824Z,36.15
2022-12-24T17:42:20.068Z,37.05
2022-12-24T17:44:49.071Z,39.92
2022-12-24T17:47:18.474Z,54.43
2022-12-24T17:49:47.443Z,59.95
2022-12-24T17:52:16.796Z,56.35
2022-12-24T17:54:45.694Z,51.10
2022-12-24T17:57:16.510Z,58.88
2022-12-24T17:59:45.440Z,55.95
2022-12-24T18:02:14.751Z,55.83
2022-12-24T18:04:43.994Z,48.10
2022-12-24T18:07:13.327Z,72.23
2022-12-24T18:09:45.336Z,38.45
2022-12-24T18:12:16.045Z,34.10
2022-12-24T18:17:14.116Z,25.80
2022-12-24T18:19:43.148Z,28.73
2022-12-24T18:22:12.416Z,23.05
2022-12-24T18:24:41.535Z,33.83
2022-12-24T18:27:10.712Z,28.75
2022-12-24T18:29:42.519Z,25.45
2022-12-24T18:32:12.906Z,24.88
2022-12-24T18:34:42.428Z,26.25
2022-12-24T18:37:11.701Z,24.58
2022-12-24T18:39:40.706Z,24.13
2022-12-24T18:42:14.366Z,25.10
2022-12-24T18:44:45.191Z,29.45
2022-12-24T18:47:14.606Z,26.50
2022-12-24T18:49:43.674Z,34.60
2022-12-24T18:52:17.872Z,25.17
2022-12-24T18:54:51.544Z,27.60
2022-12-24T18:57:20.806Z,25.13
2022-12-24T18:59:51.122Z,27.83
2022-12-24T19:02:20.511Z,31.10
2022-12-24T19:04:49.494Z,33.08
2022-12-24T19:07:19.014Z,36.70
2022-12-24T19:09:48.684Z,41.95
2022-12-24T19:12:17.988Z,26.65
2022-12-24T19:14:47.009Z,36.20
2022-12-24T19:17:17.709Z,26.23
2022-12-24T19:22:15.634Z,24.35
2022-12-24T19:24:44.745Z,27.90
2022-12-24T19:27:14.072Z,31.15
2022-12-24T19:29:43.077Z,34.28
2022-12-24T19:32:12.452Z,37.35
2022-12-24T19:34:42.749Z,39.97
2022-12-24T19:37:12.451Z,40.55
2022-12-24T19:39:42.786Z,45.45
2022-12-24T19:42:12.148Z,47.90
2022-12-24T19:44:41.063Z,44.30
2022-12-24T19:47:10.360Z,56.00
2022-12-24T19:49:39.295Z,37.33
2022-12-24T19:52:09.925Z,50.88
2022-12-24T19:57:07.983Z,50.00
2022-12-24T19:59:38.238Z,42.75
2022-12-24T20:02:07.654Z,47.33
2022-12-24T20:04:36.708Z,35.65
2022-12-24T20:07:05.983Z,33.28
2022-12-24T20:09:37.140Z,52.88
2022-12-24T20:12:06.926Z,31.38
2022-12-24T20:14:35.856Z,36.67
2022-12-24T20:17:05.136Z,26.90
2022-12-24T20:19:34.197Z,21.65
2022-12-24T20:22:03.395Z,30.40
2022-12-24T20:24:32.484Z,19.50
2022-12-24T20:27:03.045Z,34.08
2022-12-24T20:32:01.494Z,17.00
2022-12-24T20:34:30.744Z,13.17
2022-12-24T20:36:59.971Z,20.42
2022-12-24T20:39:29.083Z,25.95
2022-12-24T20:41:58.275Z,25.17
2022-12-24T20:44:28.689Z,26.67
2022-12-24T20:46:57.994Z,21.85
2022-12-24T20:49:26.919Z,16.77
2022-12-24T20:51:56.135Z,13.88
2022-12-24T20:54:25.130Z,11.93
2022-12-24T20:56:57.655Z,15.80
2022-12-24T20:59:29.478Z,17.83
2022-12-24T21:01:58.836Z,12.38
2022-12-24T21:04:27.870Z,15.00
2022-12-24T21:06:57.373Z,13.85
2022-12-24T21:09:26.296Z,10.70
2022-12-24T21:12:12.745Z,14.05
2022-12-24T21:14:43.139Z,12.93
2022-12-24T21:17:15.894Z,18.30
2022-12-24T21:19:45.222Z,18.85
2022-12-24T21:22:14.547Z,22.10
2022-12-24T21:24:43.494Z,19.05
2022-12-24T21:27:12.943Z,31.83
2022-12-24T21:29:43.358Z,21.85
2022-12-24T21:32:12.637Z,25.48
2022-12-24T21:34:41.600Z,23.77
2022-12-24T21:37:11.066Z,23.57
2022-12-24T21:39:40.123Z,26.40
2022-12-24T21:42:09.397Z,25.98
2022-12-24T21:44:38.950Z,26.02
2022-12-24T21:47:11.021Z,24.02
2022-12-24T21:49:57.566Z,35.83
2022-12-24T21:52:26.810Z,24.58
2022-12-24T21:54:54.802Z,25.17
2022-12-24T21:57:49.864Z,25.35
2022-12-24T22:00:27.184Z,26.42
2022-12-24T22:02:59.859Z,24.70
2022-12-24T22:05:29.510Z,25.40
2022-12-24T22:08:16.390Z,28.50
2022-12-24T22:11:02.827Z,21.30
2022-12-24T22:13:33.476Z,22.27
2022-12-24T22:18:34.165Z,15.35
2022-12-24T22:21:03.948Z,17.25
2022-12-24T22:23:37.074Z,17.85
2022-12-24T22:26:12.813Z,19.95
2022-12-24T22:28:42.356Z,20.60
2022-12-24T22:31:19.045Z,21.42
2022-12-24T22:33:50.090Z,16.77
2022-12-24T22:36:19.143Z,17.42
2022-12-24T22:38:48.324Z,20.83
2022-12-24T22:41:17.623Z,25.73
2022-12-24T22:43:46.864Z,64.18
2022-12-24T22:46:16.019Z,36.40
2022-12-24T22:48:48.037Z,29.63
2022-12-24T22:51:19.069Z,29.92
2022-12-24T22:53:48.563Z,29.10
2022-12-24T22:56:19.730Z,37.17
2022-12-24T22:58:53.569Z,33.20
2022-12-24T23:01:33.741Z,45.15
2022-12-24T23:04:06.149Z,42.88
2022-12-24T23:06:36.043Z,35.67
2022-12-24T23:09:07.370Z,38.53
2022-12-24T23:11:36.786Z,50.40
2022-12-24T23:14:23.891Z,27.63
2022-12-24T23:16:53.046Z,36.67
2022-12-24T23:19:23.704Z,45.00
2022-12-24T23:24:21.984Z,36.72
2022-12-24T23:26:51.712Z,38.75
2022-12-24T23:29:21.600Z,52.72
2022-12-24T23:31:50.715Z,33.65
2022-12-24T23:34:20.204Z,35.65
2022-12-24T23:36:50.862Z,37.45
2022-12-24T23:39:20.464Z,41.88
2022-12-24T23:41:50.027Z,33.53
2022-12-24T23:44:19.614Z,35.88
2022-12-24T23:46:48.668Z,30.97
2022-12-24T23:49:17.893Z,35.00
2022-12-24T23:51:46.931Z,39.70
2022-12-24T23:54:17.562Z,36.03
2022-12-24T23:56:46.828Z,44.45
2022-12-24T23:59:16.124Z,48.70
